Date,TemperatureHighF,TemperatureAvgF,TemperatureLowF,DewpointHighF,DewpointAvgF,DewpointLowF,HumidityHigh,HumidityAvg,HumidityLow,PressureMaxIn,PressureMinIn,WindSpeedMaxMPH,WindSpeedAvgMPH,GustSpeedMaxMPH,PrecipitationSumIn
2014-1-1,51,38,29,-100,-100,-100,0,0,100,0.00,40.00,0,-999,0,0.00
2014-1-2,48,37,28,-100,-100,-100,0,0,100,0.00,40.00,0,-999,0,0.00
2014-1-3,49,37,28,-100,-100,-100,0,0,100,0.00,40.00,0,-999,0,0.00
2014-1-4,57,40,29,-100,-100,-100,0,0,100,0.00,40.00,0,-999,0,0.00
2014-1-5,45,37,27,-100,-100,-100,0,0,100,0.00,40.00,0,-999,0,0.00
2014-1-6,45,34,25,-100,-100,-100,0,0,100,0.00,40.00,0,-999,0,0.00
2014-1-7,43,34,27,-100,-100,-100,0,0,100,0.00,40.00,0,-999,0,0.00
2014-1-8,47,35,27,-100,-100,-100,0,0,100,0.00,40.00,0,-999,0,0.00
2014-1-9,45,35,28,-100,-100,-100,0,0,100,0.00,40.00,0,-999,0,0.00
2014-1-10,56,44,31,-100,-100,-100,0,0,100,0.00,40.00,0,-999,0,0.00
2014-1-11,55,45,35,-100,-100,-100,0,0,100,0.00,40.00,0,-999,0,0.00
2014-1-12,57,48,35,-100,-100,-100,0,0,100,0.00,40.00,0,-999,0,0.00
2014-1-13,56,44,35,-100,-100,-100,0,0,100,0.00,40.00,0,-999,0,0.00
2014-1-14,56,44,34,-100,-100,-100,0,0,100,0.00,40.00,0,-999,0,0.00
2014-1-15,55,42,31,-100,-100,-100,0,0,100,0.00,40.00,0,-999,0,0.00
2014-1-16,54,40,30,-100,-100,-100,0,0,100,0.00,40.00,0,-999,0,0.00
2014-1-17,55,40,29,-100,-100,-100,0,0,100,0.00,40.00,0,-999,0,0.00
2014-1-18,56,40,28,-100,-100,-100,0,0,100,0.00,40.00,0,-999,0,0.00
2014-1-19,55,40,30,-100,-100,-100,0,0,100,0.00,40.00,0,-999,0,0.00
2014-1-20,55,40,28,-100,-100,-100,0,0,100,0.00,40.00,0,-999,0,0.00
2014-1-21,53,39,29,-100,-100,-100,0,0,100,0.00,40.00,0,-999,0,0.00
2014-1-22,51,37,30,-100,-100,-100,0,0,100,0.00,40.00,0,-999,0,0.00
2014-1-23,53,40,28,-100,-100,-100,0,0,100,0.00,40.00,0,-999,0,0.00
2014-1-24,49,38,28,-100,-100,-100,0,0,100,0.00,40.00,0,-999,0,0.00
2014-1-25,51,39,30,-100,-100,-100,0,0,100,0.00,40.00,0,-999,0,0.00
2014-1-26,53,39,28,-100,-100,-100,0,0,100,0.00,40.00,0,-999,0,0.00
2014-1-27,58,41,28,-100,-100,-100,0,0,100,0.00,40.00,0,-999,0,0.00
2014-1-28,58,48,40,-100,-100,-100,0,0,100,0.00,40.00,0,-999,0,0.00
2014-1-29,55,42,33,-100,-100,-100,0,0,100,0.00,40.00,0,-999,0,0.00
2014-1-30,68,52,38,-100,-100,-100,0,0,100,0.00,40.00,0,-999,0,0.00
2014-1-31,57,49,46,-100,-100,-100,0,0,100,0.00,40.00,0,-999,0,0.00
2014-2-1,47,42,38,-100,-100,-100,0,0,100,0.00,40.00,0,-999,0,0.00
2014-2-2,46,38,29,-100,-100,-100,0,0,100,0.00,40.00,0,-999,0,0.00
2014-2-3,45,40,37,-100,-100,-100,0,0,100,0.00,40.00,0,-999,0,0.00
2014-2-4,51,42,35,-100,-100,-100,0,0,100,0.00,40.00,0,-999,0,0.00
2014-2-5,48,39,31,-100,-100,-100,0,0,100,0.00,40.00,0,-999,0,0.00
2014-2-6,49,39,28,-100,-100,-100,0,0,100,0.00,40.00,0,-999,0,0.00
2014-2-7,55,46,40,-100,-100,-100,0,0,100,0.00,40.00,0,-999,0,0.00
2014-2-8,61,47,36,-100,-100,-100,0,0,100,0.00,40.00,0,-999,0,0.00
2014-2-9,68,56,45,-100,-100,-100,0,0,100,0.00,40.00,0,-999,0,0.00
2014-2-10,67,55,43,-100,-100,-100,0,0,100,0.00,40.00,0,-999,0,0.00
2014-2-11,60,50,39,-100,-100,-100,0,0,100,0.00,40.00,0,-999,0,0.00
2014-2-12,60,47,36,-100,-100,-100,0,0,100,0.00,40.00,0,-999,0,0.00
2014-2-13,78,54,37,-100,-100,-100,0,0,100,0.00,40.00,0,-999,0,0.00
2014-2-14,77,62,45,-100,-100,-100,0,0,100,0.00,40.00,0,-999,0,0.00
2014-2-15,66,57,43,-100,-100,-100,0,0,100,0.00,40.00,0,-999,0,0.00
2014-2-16,76,58,42,-100,-100,-100,0,0,100,0.00,40.00,0,-999,0,0.00
2014-2-17,67,54,41,-100,-100,-100,0,0,100,0.00,40.00,0,-999,0,0.00
2014-2-18,69,56,41,-100,-100,-100,0,0,100,0.00,40.00,0,-999,0,0.00
2014-2-19,73,56,44,-100,-100,-100,0,0,100,0.00,40.00,0,-999,0,0.00
2014-2-20,54,47,40,-100,-100,-100,0,0,100,0.00,40.00,0,-999,0,0.00
2014-2-21,63,46,33,-100,-100,-100,0,0,100,0.00,40.00,0,-999,0,0.00
2014-2-22,70,54,39,-100,-100,-100,0,0,100,0.00,40.00,0,-999,0,0.00
2014-2-23,68,54,41,-100,-100,-100,0,0,100,0.00,40.00,0,-999,0,0.00
2014-2-24,71,53,38,-100,-100,-100,0,0,100,0.00,40.00,0,-999,0,0.00
2014-2-25,73,56,39,-100,-100,-100,0,0,100,0.00,40.00,0,-999,0,0.00
2014-2-26,71,57,41,-100,-100,-100,0,0,100,0.00,40.00,0,-999,0,0.00
2014-2-27,66,57,49,-100,-100,-100,0,0,100,0.00,40.00,0,-999,0,0.00
2014-2-28,56,49,41,-100,-100,-100,0,0,100,0.00,40.00,0,-999,0,0.00
2014-3-1,58,52,47,-100,-100,-100,0,0,100,0.00,40.00,0,-999,0,0.00
2014-3-2,63,55,45,-100,-100,-100,0,0,100,0.00,40.00,0,-999,0,0.00
2014-3-3,65,56,44,-100,-100,-100,0,0,100,0.00,40.00,0,-999,0,0.00
2014-3-4,68,55,46,-100,-100,-100,0,0,100,0.00,40.00,0,-999,0,0.00
2014-3-5,63,53,43,-100,-100,-100,0,0,100,0.00,40.00,0,-999,0,0.00
2014-3-6,65,53,42,-100,-100,-100,0,0,100,0.00,40.00,0,-999,0,0.00
2014-3-7,65,57,48,-100,-100,-100,0,0,100,0.00,40.00,0,-999,0,0.00
2014-3-8,64,56,48,-100,-100,-100,0,0,100,0.00,40.00,0,-999,0,0.00
2014-3-9,68,53,39,-100,-100,-100,0,0,100,0.00,40.00,0,-999,0,0.00
2014-3-10,76,57,43,-100,-100,-100,0,0,100,0.00,40.00,0,-999,0,0.00
2014-3-11,63,56,50,-100,-100,-100,0,0,100,0.00,40.00,0,-999,0,0.00
2014-3-12,59,52,43,-100,-100,-100,0,0,100,0.00,40.00,0,-999,0,0.00
2014-3-13,60,51,41,-100,-100,-100,0,0,100,0.00,40.00,0,-999,0,0.00
2014-3-14,69,56,41,-100,-100,-100,0,0,100,0.00,40.00,0,-999,0,0.00
2014-3-15,69,61,53,-100,-100,-100,0,0,100,0.00,40.00,0,-999,0,0.00
2014-3-16,72,57,41,-100,-100,-100,0,0,100,0.00,40.00,0,-999,0,0.00
2014-3-17,78,59,43,-100,-100,-100,0,0,100,0.00,40.00,0,-999,0,0.00
2014-3-18,58,50,43,-100,-100,-100,0,0,100,0.00,40.00,0,-999,0,0.00
2014-3-19,61,50,41,-100,-100,-100,0,0,100,0.00,40.00,0,-999,0,0.00
2014-3-20,68,52,36,-100,-100,-100,0,0,100,0.00,40.00,0,-999,0,0.00
2014-3-21,72,60,46,-100,-100,-100,0,0,100,0.00,40.00,0,-999,0,0.00
2014-3-22,67,59,50,-100,-100,-100,0,0,100,0.00,40.00,0,-999,0,0.00
2014-3-23,74,58,42,-100,-100,-100,0,0,100,0.00,40.00,0,-999,0,0.00
2014-3-24,72,59,44,-100,-100,-100,0,0,100,0.00,40.00,0,-999,0,0.00
2014-3-25,75,59,41,-100,-100,-100,0,0,100,0.00,40.00,0,-999,0,0.00
2014-3-26,69,61,51,-100,-100,-100,0,0,100,0.00,40.00,0,-999,0,0.00
2014-3-27,65,56,47,-100,-100,-100,0,0,100,0.00,40.00,0,-999,0,0.00
2014-3-28,68,58,45,-100,-100,-100,0,0,100,0.00,40.00,0,-999,0,0.00
2014-3-29,72,58,44,-100,-100,-100,0,0,100,0.00,40.00,0,-999,0,0.00
2014-3-30,72,58,50,-100,-100,-100,0,0,100,0.00,40.00,0,-999,0,0.00
2014-3-31,67,56,42,-100,-100,-100,0,0,100,0.00,40.00,0,-999,0,0.00
2014-4-1,69,62,55,-100,-100,-100,0,0,100,0.00,40.00,0,-999,0,0.00
2014-4-2,55,49,45,-100,-100,-100,0,0,100,0.00,40.00,0,-999,0,0.00
2014-4-3,62,53,46,-100,-100,-100,0,0,100,0.00,40.00,0,-999,0,0.00
2014-4-4,65,54,41,-100,-100,-100,0,0,100,0.00,40.00,0,-999,0,0.00
2014-4-5,63,56,47,-100,-100,-100,0,0,100,0.00,40.00,0,-999,0,0.00
2014-4-6,70,60,47,-100,-100,-100,0,0,100,0.00,40.00,0,-999,0,0.00
2014-4-7,76,65,54,-100,-100,-100,0,0,100,0.00,40.00,0,-999,0,0.00
2014-4-8,81,67,50,-100,-100,-100,0,0,100,0.00,40.00,0,-999,0,0.00
2014-4-9,85,67,49,-100,-100,-100,0,0,100,0.00,40.00,0,-999,0,0.00
2014-4-10,87,70,52,-100,-100,-100,0,0,100,0.00,40.00,0,-999,0,0.00
2014-4-11,84,70,53,-100,-100,-100,0,0,100,0.00,40.00,0,-999,0,0.00
2014-4-12,79,71,63,-100,-100,-100,0,0,100,0.00,40.00,0,-999,0,0.00
2014-4-13,72,65,56,-100,-100,-100,0,0,100,0.00,40.00,0,-999,0,0.00
2014-4-14,64,56,50,-100,-100,-100,0,0,100,0.00,40.00,0,-999,0,0.00
2014-4-15,78,60,41,-100,-100,-100,0,0,100,0.00,40.00,0,-999,0,0.00
2014-4-16,73,66,58,-100,-100,-100,0,0,100,0.00,40.00,0,-999,0,0.00
2014-4-17,83,66,50,-100,-100,-100,0,0,100,0.00,40.00,0,-999,0,0.00
2014-4-18,79,68,56,-100,-100,-100,0,0,100,0.00,40.00,0,-999,0,0.00
2014-4-19,78,68,61,-100,-100,-100,0,0,100,0.00,40.00,0,-999,0,0.00
2014-4-20,83,70,54,-100,-100,-100,0,0,100,0.00,40.00,0,-999,0,0.00
2014-4-21,87,73,56,-100,-100,-100,0,0,100,0.00,40.00,0,-999,0,0.00
2014-4-22,83,73,60,-100,-100,-100,0,0,100,0.00,40.00,0,-999,0,0.00
2014-4-23,72,65,57,-100,-100,-100,0,0,100,0.00,40.00,0,-999,0,0.00
2014-4-24,78,64,48,-100,-100,-100,0,0,100,0.00,40.00,0,-999,0,0.00
2014-4-25,83,69,52,-100,-100,-100,0,0,100,0.00,40.00,0,-999,0,0.00
2014-4-26,71,59,50,-100,-100,-100,0,0,100,0.00,40.00,0,-999,0,0.00
2014-4-27,69,60,53,-100,-100,-100,0,0,100,0.00,40.00,0,-999,0,0.00
2014-4-28,68,59,46,-100,-100,-100,0,0,100,0.00,40.00,0,-999,0,0.00
2014-4-29,67,60,51,-100,-100,-100,0,0,100,0.00,40.00,0,-999,0,0.00
2014-4-30,66,60,54,-100,-100,-100,0,0,100,0.00,40.00,0,-999,0,0.00
2014-5-1,76,64,49,-100,-100,-100,0,0,100,0.00,40.00,0,-999,0,0.00
2014-5-2,87,68,49,-100,-100,-100,0,0,100,0.00,40.00,0,-999,0,0.00
2014-5-3,93,75,54,-100,-100,-100,0,0,100,0.00,40.00,0,-999,0,0.00
2014-5-4,90,80,63,-100,-100,-100,0,0,100,0.00,40.00,0,-999,0,0.00
2014-5-5,90,78,64,-100,-100,-100,0,0,100,0.00,40.00,0,-999,0,0.00
2014-5-6,79,72,63,-100,-100,-100,0,0,100,0.00,40.00,0,-999,0,0.00
2014-5-13,68,65,58,-100,-100,-100,0,0,100,0.00,40.00,0,-999,0,0.00
2014-5-14,74,62,45,-100,-100,-100,0,0,100,0.00,40.00,0,-999,0,0.00
2014-5-15,88,70,50,-100,-100,-100,0,0,100,0.00,40.00,0,-999,0,0.00
2014-5-16,93,77,58,-100,-100,-100,0,0,100,0.00,40.00,0,-999,0,0.00
2014-5-17,97,80,60,-100,-100,-100,0,0,100,0.00,40.00,0,-999,0,0.00
2014-5-18,95,83,73,-100,-100,-100,0,0,100,0.00,40.00,0,-999,0,0.00
2014-5-19,93,82,67,-100,-100,-100,0,0,100,0.00,40.00,0,-999,0,0.00
2014-5-20,88,78,65,-100,-100,-100,0,0,100,0.00,40.00,0,-999,0,0.00
2014-5-21,85,74,58,-100,-100,-100,0,0,100,0.00,40.00,0,-999,0,0.00
2014-5-22,86,72,55,-100,-100,-100,0,0,100,0.00,40.00,0,-999,0,0.00
2014-5-23,73,67,59,-100,-100,-100,0,0,100,0.00,40.00,0,-999,0,0.00
2014-5-24,77,65,51,-100,-100,-100,0,0,100,0.00,40.00,0,-999,0,0.00
2014-5-25,83,71,57,-100,-100,-100,0,0,100,0.00,40.00,0,-999,0,0.00
2014-5-26,91,78,62,-100,-100,-100,0,0,100,0.00,40.00,0,-999,0,0.00
2014-5-27,99,82,63,-100,-100,-100,0,0,100,0.00,40.00,0,-999,0,0.00
2014-5-28,99,87,72,-100,-100,-100,0,0,100,0.00,40.00,0,-999,0,0.00
2014-5-29,88,80,72,-100,-100,-100,0,0,100,0.00,40.00,0,-999,0,0.00
2014-5-30,92,80,65,-100,-100,-100,0,0,100,0.00,40.00,0,-999,0,0.00
2014-5-31,98,82,63,-100,-100,-100,0,0,100,0.00,40.00,0,-999,0,0.00
2014-6-1,95,82,65,-100,-100,-100,0,0,100,0.00,40.00,0,-999,0,0.00
2014-6-2,87,74,64,-100,-100,-100,0,0,100,0.00,40.00,0,-999,0,0.00